Time;durP1;ratioP1;P1;durP2;ratioP2;P2;SDS_P1;SDS_P2;PMS_P1;PMS_P2;Temp;Humidity;BMP_temperature;BMP_pressure;BME280_temperature;BME280_humidity;BME280_pressure;Samples;Min_cycle;Max_cycle;Signal;HPM_P1;HPM_P2
2023/12/08 00:01:54;;;;;;;28.95;10.85;;;;;;;;;;5094504;28;20047;-68
2023/12/08 00:04:20;;;;;;;23.90;9.00;;;;;;;;;;5094972;28;20141;-67
2023/12/08 00:06:46;;;;;;;28.83;9.90;;;;;;;;;;5094717;28;20052;-67
2023/12/08 00:09:13;;;;;;;23.13;8.38;;;;;;;;;;5076645;28;20051;-68
2023/12/08 00:11:39;;;;;;;19.92;8.43;;;;;;;;;;5094450;28;20044;-68
2023/12/08 00:14:06;;;;;;;22.70;8.07;;;;;;;;;;5093030;28;20050;-68
2023/12/08 00:16:32;;;;;;;21.63;8.33;;;;;;;;;;5094379;28;20056;-68
2023/12/08 00:18:58;;;;;;;20.45;8.13;;;;;;;;;;5094043;28;20044;-68
2023/12/08 00:21:25;;;;;;;21.00;8.32;;;;;;;;;;5094226;28;20116;-70
2023/12/08 00:23:52;;;;;;;26.50;9.25;;;;;;;;;;5094145;28;20058;-68
2023/12/08 00:26:18;;;;;;;29.08;10.25;;;;;;;;;;5092899;28;20044;-70
2023/12/08 00:28:44;;;;;;;25.25;9.45;;;;;;;;;;5076455;28;20055;-68
2023/12/08 00:31:11;;;;;;;27.63;10.55;;;;;;;;;;5092889;28;20054;-68
2023/12/08 00:33:37;;;;;;;27.05;9.93;;;;;;;;;;5094058;28;20135;-68
2023/12/08 00:36:16;;;;;;;28.00;9.98;;;;;;;;;;5092951;28;20466;-67
2023/12/08 00:38:44;;;;;;;28.08;10.45;;;;;;;;;;5093302;28;20051;-69
2023/12/08 00:41:10;;;;;;;28.98;9.95;;;;;;;;;;5093607;28;20044;-68
2023/12/08 00:43:37;;;;;;;26.60;10.38;;;;;;;;;;5075745;28;20048;-70
2023/12/08 00:46:03;;;;;;;22.73;9.03;;;;;;;;;;5093733;28;20369;-69
2023/12/08 00:48:30;;;;;;;30.27;9.90;;;;;;;;;;5093940;28;20286;-67
2023/12/08 00:50:56;;;;;;;18.27;6.87;;;;;;;;;;5094289;28;20373;-67
2023/12/08 00:53:22;;;;;;;27.55;10.60;;;;;;;;;;5093741;28;20067;-68
2023/12/08 00:55:48;;;;;;;29.75;10.15;;;;;;;;;;5093020;28;20366;-67
2023/12/08 00:58:17;;;;;;;30.92;9.90;;;;;;;;;;5093638;28;20044;-68
2023/12/08 01:00:44;;;;;;;30.38;10.07;;;;;;;;;;5126861;27;20093;-68
2023/12/08 01:03:10;;;;;;;24.10;8.80;;;;;;;;;;5093635;28;20121;-70
2023/12/08 01:05:36;;;;;;;33.88;9.90;;;;;;;;;;5092280;28;20137;-67
2023/12/08 01:08:02;;;;;;;23.67;8.30;;;;;;;;;;5092576;28;20472;-70
2023/12/08 01:10:29;;;;;;;28.00;9.73;;;;;;;;;;5093553;28;20044;-69
2023/12/08 01:12:55;;;;;;;19.80;7.30;;;;;;;;;;5092820;28;20048;-68
2023/12/08 01:15:21;;;;;;;28.05;9.55;;;;;;;;;;5093567;28;20081;-69
2023/12/08 01:17:47;;;;;;;24.95;8.77;;;;;;;;;;5096295;28;20117;-68
2023/12/08 01:20:13;;;;;;;30.50;10.07;;;;;;;;;;5130611;27;20135;-69
2023/12/08 01:22:39;;;;;;;28.25;10.35;;;;;;;;;;5131068;27;20054;-68
2023/12/08 01:25:06;;;;;;;30.55;10.60;;;;;;;;;;5130666;27;20510;-70
2023/12/08 01:27:32;;;;;;;29.70;10.30;;;;;;;;;;5097626;28;20044;-68
2023/12/08 01:29:58;;;;;;;33.42;9.98;;;;;;;;;;5096278;28;20043;-67
2023/12/08 01:32:24;;;;;;;26.60;9.85;;;;;;;;;;5097496;28;20044;-68
2023/12/08 01:34:50;;;;;;;32.50;11.40;;;;;;;;;;5080344;28;20128;-68
2023/12/08 01:37:16;;;;;;;23.58;8.52;;;;;;;;;;5097311;28;20051;-69
2023/12/08 01:39:42;;;;;;;25.10;9.68;;;;;;;;;;5096175;28;20055;-68
2023/12/08 01:42:08;;;;;;;27.27;9.88;;;;;;;;;;5130728;27;20052;-68
2023/12/08 01:44:34;;;;;;;29.10;10.50;;;;;;;;;;5079100;28;20408;-69
2023/12/08 01:47:00;;;;;;;28.58;10.38;;;;;;;;;;5096790;28;20349;-67
2023/12/08 01:49:26;;;;;;;26.08;9.23;;;;;;;;;;5096322;28;20454;-70
2023/12/08 01:51:53;;;;;;;23.17;7.95;;;;;;;;;;5096701;28;20142;-70
2023/12/08 01:54:19;;;;;;;34.30;11.02;;;;;;;;;;5097530;28;20123;-68
2023/12/08 01:56:45;;;;;;;31.17;10.95;;;;;;;;;;5097523;28;20048;-68
2023/12/08 01:59:11;;;;;;;29.23;11.20;;;;;;;;;;5079058;28;20054;-69
2023/12/08 02:01:38;;;;;;;29.45;11.13;;;;;;;;;;5096212;28;20396;-70
2023/12/08 02:04:05;;;;;;;28.67;9.95;;;;;;;;;;5095753;28;20102;-70
2023/12/08 02:06:31;;;;;;;28.27;10.25;;;;;;;;;;5095536;28;20044;-69
2023/12/08 02:08:58;;;;;;;29.55;10.30;;;;;;;;;;5096166;28;20094;-69
2023/12/08 02:11:24;;;;;;;29.20;9.95;;;;;;;;;;5097289;28;20080;-69
2023/12/08 02:13:50;;;;;;;27.58;9.85;;;;;;;;;;5095188;28;20535;-69
2023/12/08 02:16:19;;;;;;;28.73;10.82;;;;;;;;;;5096571;28;20086;-69
2023/12/08 02:18:45;;;;;;;27.95;10.55;;;;;;;;;;5096610;28;20048;-68
2023/12/08 02:21:13;;;;;;;30.40;10.25;;;;;;;;;;5096514;28;20044;-70
2023/12/08 02:23:43;;;;;;;21.10;7.85;;;;;;;;;;5096551;28;20044;-69
2023/12/08 02:26:10;;;;;;;28.40;11.27;;;;;;;;;;5078299;28;20082;-68
2023/12/08 02:28:36;;;;;;;;;;;;;;;;;;5078855;28;20051;-68
2023/12/08 02:31:03;;;;;;;32.05;11.13;;;;;;;;;;5096392;28;20042;-68
2023/12/08 02:33:29;;;;;;;;;;;;;;;;;;5097374;28;20055;-68
2023/12/08 02:35:56;;;;;;;32.15;11.27;;;;;;;;;;5096855;28;19920;-66
2023/12/08 02:38:23;;;;;;;33.33;12.35;;;;;;;;;;5096200;28;20113;-69
2023/12/08 02:40:49;;;;;;;33.83;11.13;;;;;;;;;;5078393;28;20036;-68
2023/12/08 02:43:16;;;;;;;23.48;9.18;;;;;;;;;;5095253;28;20478;-69
2023/12/08 02:45:42;;;;;;;33.50;12.73;;;;;;;;;;5096092;28;20090;-68
2023/12/08 02:48:08;;;;;;;31.20;11.50;;;;;;;;;;5096894;28;20048;-67
2023/12/08 02:50:35;;;;;;;;;;;;;;;;;;5096097;28;20056;-67
2023/12/08 02:53:01;;;;;;;26.65;10.00;;;;;;;;;;5078201;28;19927;-71
2023/12/08 02:55:27;;;;;;;33.88;10.95;;;;;;;;;;5094670;28;20048;-69
2023/12/08 02:57:53;;;;;;;34.40;11.85;;;;;;;;;;5096337;28;20113;-69
2023/12/08 03:00:19;;;;;;;34.88;11.50;;;;;;;;;;5095887;28;20105;-69
2023/12/08 03:02:45;;;;;;;26.00;9.98;;;;;;;;;;5096799;28;20047;-67
2023/12/08 03:05:12;;;;;;;30.83;12.27;;;;;;;;;;5095170;28;20337;-81
2023/12/08 03:07:38;;;;;;;34.08;11.63;;;;;;;;;;5078281;28;20055;-78
2023/12/08 03:10:04;;;;;;;28.10;10.88;;;;;;;;;;5095852;28;20137;-77
2023/12/08 03:12:30;;;;;;;32.47;11.95;;;;;;;;;;5078166;28;20043;-77
2023/12/08 03:14:57;;;;;;;33.88;12.02;;;;;;;;;;5095017;28;20040;-77
2023/12/08 03:17:23;;;;;;;29.08;11.50;;;;;;;;;;5094412;28;20044;-77
2023/12/08 03:19:50;;;;;;;31.83;12.13;;;;;;;;;;5095969;28;20048;-80
2023/12/08 03:22:16;;;;;;;31.85;10.90;;;;;;;;;;5130888;27;20360;-80
2023/12/08 03:24:42;;;;;;;34.47;12.25;;;;;;;;;;5095635;28;20046;-80
2023/12/08 03:27:08;;;;;;;33.42;11.50;;;;;;;;;;5060979;28;20040;-80
2023/12/08 03:29:34;;;;;;;39.90;12.00;;;;;;;;;;5094947;28;20051;-82
2023/12/08 03:32:00;;;;;;;32.35;11.98;;;;;;;;;;5095479;28;20075;-81
2023/12/08 03:34:26;;;;;;;32.67;11.88;;;;;;;;;;5097533;28;20132;-80
2023/12/08 03:36:52;;;;;;;36.42;12.57;;;;;;;;;;5098160;28;20498;-79
2023/12/08 03:39:18;;;;;;;33.70;11.93;;;;;;;;;;5097554;28;20055;-80
2023/12/08 03:41:44;;;;;;;34.63;12.05;;;;;;;;;;5098434;28;20499;-77
2023/12/08 03:44:11;;;;;;;32.78;11.85;;;;;;;;;;5097354;28;20456;-79
2023/12/08 03:46:37;;;;;;;36.58;11.93;;;;;;;;;;5094250;28;20113;-79
2023/12/08 03:49:03;;;;;;;32.85;12.15;;;;;;;;;;5100210;28;20055;-79
2023/12/08 03:51:31;;;;;;;36.95;12.18;;;;;;;;;;5098319;28;20059;-78
2023/12/08 03:53:57;;;;;;;32.22;12.02;;;;;;;;;;5094013;28;20067;-79
2023/12/08 03:56:24;;;;;;;34.13;12.32;;;;;;;;;;5076903;28;20069;-79
2023/12/08 03:58:50;;;;;;;32.67;12.23;;;;;;;;;;5095132;28;20448;-78
2023/12/08 04:01:17;;;;;;;37.88;12.55;;;;;;;;;;5094940;28;20131;-80
2023/12/08 04:03:43;;;;;;;37.63;13.32;;;;;;;;;;5093272;28;20047;-79
2023/12/08 04:06:09;;;;;;;35.90;12.68;;;;;;;;;;5094387;28;20079;-79
2023/12/08 04:08:35;;;;;;;33.63;11.60;;;;;;;;;;5094601;28;20127;-80
2023/12/08 04:11:03;;;;;;;34.55;12.30;;;;;;;;;;5095163;28;20048;-79
2023/12/08 04:13:29;;;;;;;32.70;11.80;;;;;;;;;;5076387;28;20048;-78
2023/12/08 04:15:55;;;;;;;33.95;13.23;;;;;;;;;;5095390;28;20040;-80
2023/12/08 04:18:21;;;;;;;36.55;12.57;;;;;;;;;;5093610;28;20055;-79
2023/12/08 04:20:47;;;;;;;37.40;13.45;;;;;;;;;;5094549;28;20059;-78
2023/12/08 04:23:13;;;;;;;34.08;13.07;;;;;;;;;;5076435;28;20444;-79
2023/12/08 04:25:39;;;;;;;36.05;12.48;;;;;;;;;;5094111;28;20039;-77
2023/12/08 04:28:05;;;;;;;35.42;12.55;;;;;;;;;;5095035;28;20040;-78
2023/12/08 04:30:32;;;;;;;33.75;11.90;;;;;;;;;;5094461;28;20051;-75
2023/12/08 04:32:58;;;;;;;31.05;11.95;;;;;;;;;;5094120;28;20054;-76
2023/12/08 04:35:24;;;;;;;30.60;10.70;;;;;;;;;;5094405;28;20036;-77
2023/12/08 04:37:50;;;;;;;34.25;11.68;;;;;;;;;;5094954;28;20373;-75
2023/12/08 04:40:17;;;;;;;36.75;11.52;;;;;;;;;;5094922;28;20040;-75
2023/12/08 04:42:43;;;;;;;33.35;12.80;;;;;;;;;;5076460;28;20115;-76
2023/12/08 04:45:10;;;;;;;38.50;13.77;;;;;;;;;;5092766;28;20062;-75
2023/12/08 04:47:36;;;;;;;36.37;12.27;;;;;;;;;;5092907;28;20043;-76
2023/12/08 04:50:03;;;;;;;30.95;9.82;;;;;;;;;;5093146;28;20044;-75
2023/12/08 04:52:29;;;;;;;42.90;12.63;;;;;;;;;;5092951;28;20052;-76
2023/12/08 04:54:55;;;;;;;33.78;11.98;;;;;;;;;;5092597;28;20286;-74
2023/12/08 04:57:22;;;;;;;34.22;12.40;;;;;;;;;;5128168;27;20048;-76
2023/12/08 04:59:48;;;;;;;34.75;12.30;;;;;;;;;;5079232;28;20369;-74
2023/12/08 05:02:14;;;;;;;28.13;10.73;;;;;;;;;;5082726;28;20458;-76
2023/12/08 05:04:41;;;;;;;32.53;12.05;;;;;;;;;;5077678;28;20472;-76
2023/12/08 05:07:07;;;;;;;39.97;12.57;;;;;;;;;;5076625;28;20459;-77
2023/12/08 05:09:34;;;;;;;34.20;13.05;;;;;;;;;;5092573;28;20044;-75
2023/12/08 05:12:00;;;;;;;37.55;12.30;;;;;;;;;;5092549;28;20086;-74
2023/12/08 05:14:31;;;;;;;36.63;14.23;;;;;;;;;;5094350;28;20063;-74
2023/12/08 05:16:58;;;;;;;35.13;12.48;;;;;;;;;;5093677;28;20044;-74
2023/12/08 05:19:24;;;;;;;34.97;12.60;;;;;;;;;;5093098;28;20063;-76
2023/12/08 05:21:50;;;;;;;35.35;12.10;;;;;;;;;;5126898;28;20118;-74
2023/12/08 05:24:16;;;;;;;36.75;13.23;;;;;;;;;;5093670;28;20135;-73
2023/12/08 05:26:42;;;;;;;40.47;14.10;;;;;;;;;;5093259;28;20048;-74
2023/12/08 05:29:08;;;;;;;36.20;13.00;;;;;;;;;;5093755;28;20392;-74
2023/12/08 05:31:34;;;;;;;33.75;11.15;;;;;;;;;;5092190;28;20055;-74
2023/12/08 05:34:00;;;;;;;35.97;12.35;;;;;;;;;;5092441;28;20048;-74
2023/12/08 05:36:27;;;;;;;37.00;10.90;;;;;;;;;;5092569;28;20048;-73
2023/12/08 05:38:53;;;;;;;38.50;13.43;;;;;;;;;;5075733;28;20461;-73
2023/12/08 05:41:19;;;;;;;39.33;12.63;;;;;;;;;;5075611;28;20131;-73
2023/12/08 05:43:46;;;;;;;37.28;13.52;;;;;;;;;;5093549;28;20411;-72
2023/12/08 05:46:12;;;;;;;34.95;11.32;;;;;;;;;;5092153;28;20151;-73
2023/12/08 05:48:38;;;;;;;36.72;12.75;;;;;;;;;;5126087;28;20048;-73
2023/12/08 05:51:04;;;;;;;31.70;10.93;;;;;;;;;;5091835;28;20059;-73
2023/12/08 05:53:30;;;;;;;35.03;11.82;;;;;;;;;;5074735;28;20044;-72
2023/12/08 05:55:56;;;;;;;31.88;11.27;;;;;;;;;;5075275;28;20536;-74
2023/12/08 05:58:26;;;;;;;42.53;13.02;;;;;;;;;;5093668;28;20051;-73
2023/12/08 06:00:52;;;;;;;40.08;13.55;;;;;;;;;;5092346;28;20040;-73
2023/12/08 06:03:18;;;;;;;43.65;13.20;;;;;;;;;;5092954;28;20048;-73
2023/12/08 06:05:44;;;;;;;38.55;12.93;;;;;;;;;;5096401;28;20487;-73
2023/12/08 06:08:10;;;;;;;35.30;13.00;;;;;;;;;;5095571;28;20055;-72
2023/12/08 06:10:36;;;;;;;37.10;13.60;;;;;;;;;;5095480;28;20051;-74
2023/12/08 06:13:02;;;;;;;25.73;9.00;;;;;;;;;;5079507;28;20055;-73
2023/12/08 06:15:28;;;;;;;36.22;12.32;;;;;;;;;;5095942;28;20048;-71
2023/12/08 06:17:54;;;;;;;33.50;10.65;;;;;;;;;;5079501;28;20076;-71
2023/12/08 06:20:21;;;;;;;37.88;13.52;;;;;;;;;;5097624;28;20044;-70
2023/12/08 06:22:47;;;;;;;38.20;13.52;;;;;;;;;;5097099;28;20423;-71
2023/12/08 06:25:13;;;;;;;37.53;12.93;;;;;;;;;;5078648;28;20094;-70
2023/12/08 06:27:39;;;;;;;35.35;11.68;;;;;;;;;;5096721;28;20054;-72
2023/12/08 06:30:07;;;;;;;36.00;11.50;;;;;;;;;;5096864;28;20391;-70
2023/12/08 06:32:34;;;;;;;35.97;12.15;;;;;;;;;;5096907;28;20127;-70
2023/12/08 06:35:00;;;;;;;33.40;12.57;;;;;;;;;;5096160;28;20043;-71
2023/12/08 06:37:26;;;;;;;36.45;13.27;;;;;;;;;;5129326;27;20384;-73
2023/12/08 06:39:53;;;;;;;42.85;17.35;;;;;;;;;;5096976;28;20130;-71
2023/12/08 06:42:19;;;;;;;68.38;33.53;;;;;;;;;;5095983;28;20060;-71
2023/12/08 06:44:45;;;;;;;56.58;20.75;;;;;;;;;;5096534;28;20368;-71
2023/12/08 06:47:11;;;;;;;48.50;19.42;;;;;;;;;;5096373;28;20501;-71
2023/12/08 06:49:38;;;;;;;44.67;16.10;;;;;;;;;;5078330;28;20052;-71
2023/12/08 06:52:04;;;;;;;37.47;12.95;;;;;;;;;;5094563;28;20058;-70
2023/12/08 06:54:31;;;;;;;38.55;13.68;;;;;;;;;;5095675;28;20083;-70
2023/12/08 06:56:57;;;;;;;40.45;15.68;;;;;;;;;;5094298;28;20040;-71
2023/12/08 06:59:23;;;;;;;45.83;14.20;;;;;;;;;;5095389;28;20366;-69
2023/12/08 07:01:49;;;;;;;39.92;14.43;;;;;;;;;;5094265;28;20050;-69
2023/12/08 07:04:15;;;;;;;40.15;13.52;;;;;;;;;;5095570;28;20051;-71
2023/12/08 07:06:41;;;;;;;36.80;11.65;;;;;;;;;;5095403;28;20127;-70
2023/12/08 07:09:09;;;;;;;39.20;14.00;;;;;;;;;;5094478;28;20044;-69
2023/12/08 07:11:35;;;;;;;41.78;14.25;;;;;;;;;;5095526;28;20080;-71
2023/12/08 07:14:01;;;;;;;39.45;11.60;;;;;;;;;;5093891;28;20131;-70
2023/12/08 07:16:28;;;;;;;30.58;10.18;;;;;;;;;;5076940;28;20532;-70
2023/12/08 07:18:54;;;;;;;38.53;12.68;;;;;;;;;;5128190;27;20044;-71
2023/12/08 07:21:20;;;;;;;38.42;13.55;;;;;;;;;;5094264;28;20098;-70
2023/12/08 07:23:46;;;;;;;42.35;13.23;;;;;;;;;;5094015;28;20135;-74
2023/12/08 07:26:13;;;;;;;39.55;13.23;;;;;;;;;;5095495;28;20044;-70
2023/12/08 07:28:39;;;;;;;45.20;14.63;;;;;;;;;;5096417;28;20040;-71
2023/12/08 07:31:05;;;;;;;41.53;14.13;;;;;;;;;;5077514;28;20388;-72
2023/12/08 07:33:31;;;;;;;41.53;13.48;;;;;;;;;;5093975;28;20075;-70
2023/12/08 07:35:58;;;;;;;42.72;15.13;;;;;;;;;;5128044;27;20087;-72
2023/12/08 07:38:24;;;;;;;39.72;13.57;;;;;;;;;;5095207;28;20048;-72
2023/12/08 07:40:50;;;;;;;42.17;13.40;;;;;;;;;;5094026;28;20044;-74
2023/12/08 07:43:16;;;;;;;38.88;13.55;;;;;;;;;;5095538;28;20052;-70
2023/12/08 07:45:42;;;;;;;42.20;16.33;;;;;;;;;;5093677;28;20044;-72
2023/12/08 07:48:08;;;;;;;40.08;13.82;;;;;;;;;;5093943;28;20101;-71
2023/12/08 07:50:34;;;;;;;40.08;15.20;;;;;;;;;;5094646;28;20052;-72
2023/12/08 07:53:00;;;;;;;40.63;13.25;;;;;;;;;;5093763;28;20369;-72
2023/12/08 07:55:27;;;;;;;39.28;12.50;;;;;;;;;;5094929;28;20510;-70
2023/12/08 07:57:53;;;;;;;36.33;12.55;;;;;;;;;;5094671;28;20143;-74
2023/12/08 08:00:20;;;;;;;36.50;12.43;;;;;;;;;;5094778;28;20524;-74
2023/12/08 08:02:47;;;;;;;40.40;13.48;;;;;;;;;;5094159;28;20773;-72
2023/12/08 08:05:13;;;;;;;42.30;13.07;;;;;;;;;;5094499;28;20044;-73
2023/12/08 08:07:39;;;;;;;40.25;13.43;;;;;;;;;;5095348;28;20298;-72
2023/12/08 08:10:06;;;;;;;31.40;10.82;;;;;;;;;;5076467;28;20056;-73
2023/12/08 08:12:33;;;;;;;42.17;13.38;;;;;;;;;;5094779;28;20141;-73
2023/12/08 08:14:59;;;;;;;42.42;13.77;;;;;;;;;;5093957;28;20052;-72
2023/12/08 08:17:26;;;;;;;37.28;12.52;;;;;;;;;;5076635;28;20067;-73
2023/12/08 08:19:52;;;;;;;40.78;13.05;;;;;;;;;;5093200;28;20056;-73
2023/12/08 08:22:18;;;;;;;43.65;15.10;;;;;;;;;;5076602;28;20429;-72
2023/12/08 08:24:44;;;;;;;27.55;9.57;;;;;;;;;;5076009;28;20055;-72
2023/12/08 08:27:10;;;;;;;40.90;14.20;;;;;;;;;;5093403;28;20047;-73
2023/12/08 08:29:36;;;;;;;41.25;13.38;;;;;;;;;;5094174;28;20134;-73
2023/12/08 08:32:02;;;;;;;37.58;12.98;;;;;;;;;;5076769;28;20434;-74
2023/12/08 08:34:29;;;;;;;35.80;12.75;;;;;;;;;;5093269;28;20141;-74
2023/12/08 08:36:55;;;;;;;33.97;11.32;;;;;;;;;;5093689;28;20048;-73
2023/12/08 08:39:21;;;;;;;34.90;11.68;;;;;;;;;;5093761;28;20040;-72
2023/12/08 08:41:48;;;;;;;32.83;11.95;;;;;;;;;;5101767;28;20079;-71
2023/12/08 08:44:14;;;;;;;36.13;12.47;;;;;;;;;;5104024;28;20051;-71
2023/12/08 08:46:41;;;;;;;42.20;14.80;;;;;;;;;;5096243;28;20484;-73
2023/12/08 08:49:09;;;;;;;43.10;14.43;;;;;;;;;;5092721;28;20047;-72
2023/12/08 08:51:35;;;;;;;44.70;14.82;;;;;;;;;;5092660;28;20087;-71
2023/12/08 08:54:02;;;;;;;41.75;15.30;;;;;;;;;;5076743;28;20108;-73
2023/12/08 08:56:28;;;;;;;39.25;13.60;;;;;;;;;;5092834;28;20139;-73
2023/12/08 08:58:54;;;;;;;36.85;12.65;;;;;;;;;;5094005;28;20475;-72
2023/12/08 09:01:20;;;;;;;38.88;14.00;;;;;;;;;;5092335;28;20114;-70
2023/12/08 09:03:46;;;;;;;36.25;12.45;;;;;;;;;;5093573;28;20044;-72
2023/12/08 09:06:12;;;;;;;39.78;13.60;;;;;;;;;;5093150;28;20047;-71
2023/12/08 09:08:38;;;;;;;38.20;13.05;;;;;;;;;;5076544;28;20175;-72
2023/12/08 09:11:05;;;;;;;38.78;13.88;;;;;;;;;;5075246;28;20055;-73
2023/12/08 09:13:31;;;;;;;39.22;14.10;;;;;;;;;;5092741;28;20364;-72
2023/12/08 09:15:58;;;;;;;39.72;12.88;;;;;;;;;;5092573;28;20047;-72
2023/12/08 09:18:24;;;;;;;33.97;11.95;;;;;;;;;;5075573;28;20044;-73
2023/12/08 09:20:51;;;;;;;40.45;13.93;;;;;;;;;;5093638;28;20094;-72
2023/12/08 09:23:17;;;;;;;47.30;14.63;;;;;;;;;;5092179;28;20059;-71
2023/12/08 09:25:43;;;;;;;33.65;11.77;;;;;;;;;;5092195;28;20130;-73
2023/12/08 09:28:09;;;;;;;44.08;15.75;;;;;;;;;;5093806;28;20041;-72
2023/12/08 09:30:35;;;;;;;41.25;15.38;;;;;;;;;;5076128;28;20055;-72
2023/12/08 09:33:01;;;;;;;44.40;15.27;;;;;;;;;;5093410;28;20036;-73
2023/12/08 09:35:27;;;;;;;49.58;17.17;;;;;;;;;;5075536;28;20052;-72
2023/12/08 09:37:53;;;;;;;55.40;18.40;;;;;;;;;;5093505;28;20044;-73
2023/12/08 09:40:23;;;;;;;45.60;17.45;;;;;;;;;;5097889;28;20112;-73
2023/12/08 09:42:53;;;;;;;41.63;14.90;;;;;;;;;;5097392;28;20052;-72
2023/12/08 09:45:20;;;;;;;44.83;14.32;;;;;;;;;;5097897;28;20079;-72
2023/12/08 09:47:49;;;;;;;49.47;15.45;;;;;;;;;;5096263;28;20181;-74
2023/12/08 09:50:16;;;;;;;46.33;15.77;;;;;;;;;;5096212;28;20392;-73
2023/12/08 09:52:43;;;;;;;42.63;14.93;;;;;;;;;;5095818;28;20139;-73
2023/12/08 09:55:11;;;;;;;44.97;16.13;;;;;;;;;;5098075;28;20040;-74
2023/12/08 09:57:38;;;;;;;41.83;14.40;;;;;;;;;;5099908;28;20044;-73
2023/12/08 10:00:13;;;;;;;45.22;14.77;;;;;;;;;;5109717;28;20047;-75
2023/12/08 10:02:40;;;;;;;51.28;15.95;;;;;;;;;;5099643;28;20052;-73
2023/12/08 10:05:07;;;;;;;51.08;16.73;;;;;;;;;;5097401;28;20130;-74
2023/12/08 10:07:33;;;;;;;49.10;16.70;;;;;;;;;;5062626;28;20055;-73
2023/12/08 10:10:00;;;;;;;48.53;17.02;;;;;;;;;;5096865;28;20048;-75
2023/12/08 10:12:26;;;;;;;52.53;17.77;;;;;;;;;;5097526;28;20103;-75
2023/12/08 10:14:56;;;;;;;46.15;16.58;;;;;;;;;;5095878;28;20282;-75
2023/12/08 10:17:22;;;;;;;42.35;14.45;;;;;;;;;;5096574;28;20139;-75
2023/12/08 10:19:49;;;;;;;45.70;16.67;;;;;;;;;;5078937;28;20051;-75
2023/12/08 10:22:16;;;;;;;49.80;16.15;;;;;;;;;;5095674;28;20052;-77
2023/12/08 10:24:42;;;;;;;55.17;18.15;;;;;;;;;;5096666;28;20102;-75
2023/12/08 10:27:09;;;;;;;52.40;17.00;;;;;;;;;;5096612;28;20048;-75
2023/12/08 10:29:36;;;;;;;53.30;17.60;;;;;;;;;;5096829;28;20059;-75
2023/12/08 10:32:04;;;;;;;50.65;16.23;;;;;;;;;;5095164;28;20381;-76
2023/12/08 10:34:31;;;;;;;51.03;17.67;;;;;;;;;;5078541;28;20400;-75
2023/12/08 10:36:57;;;;;;;58.63;16.65;;;;;;;;;;5095561;28;20055;-74
2023/12/08 10:39:27;;;;;;;52.35;16.38;;;;;;;;;;5096578;28;20123;-75
2023/12/08 10:41:53;;;;;;;58.58;18.08;;;;;;;;;;5097256;28;20048;-75
2023/12/08 10:44:21;;;;;;;58.55;18.10;;;;;;;;;;5096832;28;20051;-75
2023/12/08 10:46:50;;;;;;;60.10;18.02;;;;;;;;;;5097154;28;20044;-74
2023/12/08 10:49:19;;;;;;;68.38;19.02;;;;;;;;;;5095570;28;20044;-77
2023/12/08 10:51:46;;;;;;;61.67;19.08;;;;;;;;;;5096423;28;20087;-73
2023/12/08 10:54:14;;;;;;;69.10;18.30;;;;;;;;;;5096783;28;20135;-74
2023/12/08 10:56:41;;;;;;;65.57;18.48;;;;;;;;;;5096427;28;20048;-74
2023/12/08 10:59:08;;;;;;;76.03;20.05;;;;;;;;;;5094861;28;20044;-74
2023/12/08 11:01:34;;;;;;;66.72;19.88;;;;;;;;;;5095738;28;20523;-75
2023/12/08 11:04:03;;;;;;;72.68;19.95;;;;;;;;;;5095494;28;20044;-74
2023/12/08 11:06:33;;;;;;;61.47;19.40;;;;;;;;;;5094871;28;20040;-74
2023/12/08 11:09:01;;;;;;;63.85;19.40;;;;;;;;;;5097299;28;20109;-75
2023/12/08 11:11:29;;;;;;;66.53;21.98;;;;;;;;;;5095615;28;20044;-74
2023/12/08 11:14:05;;;;;;;70.85;19.77;;;;;;;;;;5103779;28;20126;-74
2023/12/08 11:16:36;;;;;;;91.32;20.13;;;;;;;;;;5098574;28;20054;-72
2023/12/08 11:19:02;;;;;;;55.65;19.27;;;;;;;;;;5095663;28;20043;-73
2023/12/08 11:21:29;;;;;;;58.63;17.45;;;;;;;;;;5095108;28;20052;-74
2023/12/08 11:23:55;;;;;;;68.22;18.40;;;;;;;;;;5095670;28;20044;-74
2023/12/08 11:26:21;;;;;;;77.10;21.13;;;;;;;;;;5094211;28;20040;-73
2023/12/08 11:28:50;;;;;;;62.95;20.45;;;;;;;;;;5127906;27;20058;-74
2023/12/08 11:31:35;;;;;;;68.13;20.23;;;;;;;;;;5095268;28;20051;-75
2023/12/08 11:34:39;;;;;;;66.68;19.38;;;;;;;;;;5095446;28;20044;-73
2023/12/08 11:37:08;;;;;;;82.55;21.13;;;;;;;;;;5052762;28;20110;-74
2023/12/08 11:39:37;;;;;;;68.85;20.17;;;;;;;;;;5052675;28;20049;-73
2023/12/08 11:42:16;;;;;;;67.82;21.35;;;;;;;;;;5075117;28;20048;-73
2023/12/08 11:44:46;;;;;;;67.47;20.25;;;;;;;;;;5095798;28;20418;-74
2023/12/08 11:47:14;;;;;;;72.28;21.85;;;;;;;;;;5095078;28;20127;-74
2023/12/08 11:49:42;;;;;;;72.47;21.67;;;;;;;;;;5094873;28;20135;-74
2023/12/08 11:52:11;;;;;;;71.47;21.05;;;;;;;;;;5095240;28;20523;-74
2023/12/08 11:54:56;;;;;;;79.50;22.55;;;;;;;;;;5094962;28;20487;-74
2023/12/08 11:57:22;;;;;;;81.80;21.92;;;;;;;;;;5094856;28;20083;-75
2023/12/08 11:59:50;;;;;;;75.07;22.30;;;;;;;;;;5095503;28;20458;-75
2023/12/08 12:02:16;;;;;;;74.57;23.02;;;;;;;;;;5094385;28;20055;-75
2023/12/08 12:04:42;;;;;;;72.28;22.67;;;;;;;;;;5094155;28;20353;-75
2023/12/08 12:07:09;;;;;;;81.07;23.88;;;;;;;;;;5094781;28;20051;-74
2023/12/08 12:09:35;;;;;;;96.13;30.17;;;;;;;;;;5094572;28;20047;-76
2023/12/08 12:12:09;;;;;;;84.70;26.55;;;;;;;;;;5093824;28;20047;-76
2023/12/08 12:14:42;;;;;;;139.18;31.40;;;;;;;;;;5093524;28;20137;-75
2023/12/08 12:17:10;;;;;;;76.63;23.13;;;;;;;;;;5094387;28;20044;-76
2023/12/08 12:19:36;;;;;;;81.70;21.15;;;;;;;;;;5094018;28;20104;-74
2023/12/08 12:22:02;;;;;;;97.53;24.70;;;;;;;;;;5093751;28;20043;-75
2023/12/08 12:24:29;;;;;;;87.13;24.55;;;;;;;;;;5128918;27;20071;-75
2023/12/08 12:26:56;;;;;;;85.70;22.92;;;;;;;;;;5101557;28;20119;-75
2023/12/08 12:29:22;;;;;;;81.13;23.95;;;;;;;;;;5099782;28;20052;-75
2023/12/08 12:31:48;;;;;;;95.20;23.17;;;;;;;;;;5093745;28;20086;-74
2023/12/08 12:34:16;;;;;;;100.05;24.65;;;;;;;;;;5094455;28;20161;-75
2023/12/08 12:36:42;;;;;;;82.93;23.45;;;;;;;;;;5095234;28;20036;-74
2023/12/08 12:39:09;;;;;;;76.28;22.75;;;;;;;;;;5098163;28;20047;-74
2023/12/08 12:41:35;;;;;;;95.20;23.27;;;;;;;;;;5097992;28;20061;-77
2023/12/08 12:44:01;;;;;;;90.15;23.60;;;;;;;;;;5093863;28;20329;-76
2023/12/08 12:46:28;;;;;;;80.68;22.05;;;;;;;;;;5075788;28;20040;-76
2023/12/08 12:48:55;;;;;;;83.50;23.17;;;;;;;;;;5093865;28;20059;-76
2023/12/08 12:51:34;;;;;;;90.43;22.92;;;;;;;;;;5094362;28;20294;-75
2023/12/08 12:54:00;;;;;;;90.30;23.05;;;;;;;;;;5092475;28;20492;-76
2023/12/08 12:56:26;;;;;;;76.35;22.65;;;;;;;;;;5093058;28;20153;-75
2023/12/08 12:59:05;;;;;;;86.30;23.27;;;;;;;;;;5092566;28;20067;-74
2023/12/08 13:01:31;;;;;;;82.47;24.40;;;;;;;;;;5092778;28;20280;-75
2023/12/08 13:03:58;;;;;;;76.10;23.55;;;;;;;;;;5094129;28;20048;-76
2023/12/08 13:06:28;;;;;;;88.57;24.50;;;;;;;;;;5093947;28;20456;-74
2023/12/08 13:08:55;;;;;;;75.43;24.52;;;;;;;;;;5093144;28;20100;-74
2023/12/08 13:11:21;;;;;;;90.47;24.97;;;;;;;;;;5094295;28;20066;-74
2023/12/08 13:13:47;;;;;;;86.32;23.85;;;;;;;;;;5093495;28;20047;-75
2023/12/08 13:16:14;;;;;;;78.97;23.50;;;;;;;;;;5094140;28;20046;-74
2023/12/08 13:18:46;;;;;;;76.57;22.95;;;;;;;;;;5058742;28;20559;-73
2023/12/08 13:21:12;;;;;;;76.55;22.42;;;;;;;;;;5093452;28;20480;-74
2023/12/08 13:23:39;;;;;;;70.65;20.60;;;;;;;;;;5093422;28;20040;-74
2023/12/08 13:26:06;;;;;;;66.88;20.77;;;;;;;;;;5093382;28;20040;-74
2023/12/08 13:28:32;;;;;;;75.07;20.55;;;;;;;;;;5092503;28;20093;-74
2023/12/08 13:30:58;;;;;;;74.55;21.48;;;;;;;;;;5075772;28;20052;-74
2023/12/08 13:33:25;;;;;;;70.85;21.10;;;;;;;;;;5093585;28;20157;-74
2023/12/08 13:35:52;;;;;;;97.57;24.10;;;;;;;;;;5093600;28;20486;-75
2023/12/08 13:38:18;;;;;;;74.95;22.00;;;;;;;;;;5093770;28;20055;-75
2023/12/08 13:40:44;;;;;;;96.53;22.88;;;;;;;;;;5097843;28;20078;-74
2023/12/08 13:43:10;;;;;;;85.20;22.17;;;;;;;;;;5080268;28;20044;-74
2023/12/08 13:45:36;;;;;;;81.82;22.48;;;;;;;;;;5075668;28;20044;-74
2023/12/08 13:48:02;;;;;;;77.50;22.55;;;;;;;;;;5093744;28;20090;-74
2023/12/08 13:50:28;;;;;;;96.10;22.83;;;;;;;;;;5076139;28;20101;-74
2023/12/08 13:52:55;;;;;;;93.72;22.55;;;;;;;;;;5094066;28;20131;-74
2023/12/08 13:55:22;;;;;;;85.67;22.17;;;;;;;;;;5075272;28;20048;-75
2023/12/08 13:57:48;;;;;;;71.13;20.65;;;;;;;;;;5093212;28;20127;-75
2023/12/08 14:00:18;;;;;;;94.77;23.63;;;;;;;;;;5093364;28;20043;-73
2023/12/08 14:02:44;;;;;;;93.38;21.85;;;;;;;;;;5092238;28;20694;-74
2023/12/08 14:05:10;;;;;;;82.23;22.77;;;;;;;;;;5093420;28;20044;-75
2023/12/08 14:07:37;;;;;;;87.30;21.73;;;;;;;;;;5092488;28;20088;-74
2023/12/08 14:10:04;;;;;;;87.40;21.40;;;;;;;;;;5093111;28;20468;-74
2023/12/08 14:12:30;;;;;;;77.47;21.83;;;;;;;;;;5092095;28;20051;-74
2023/12/08 14:14:56;;;;;;;79.33;21.03;;;;;;;;;;5093125;28;20408;-74
2023/12/08 14:17:22;;;;;;;77.35;20.55;;;;;;;;;;5092124;28;20048;-75